createdAt,value
2016-02-20T00:00:34.355Z,0
2016-02-20T00:01:34.326Z,0
2016-02-20T00:02:34.158Z,0
2016-02-20T00:03:34.269Z,0
2016-02-20T00:04:34.241Z,0
2016-02-20T00:05:34.201Z,0
2016-02-20T00:06:34.181Z,0
2016-02-20T00:07:34.153Z,0
2016-02-20T00:08:34.124Z,0
2016-02-20T00:09:34.096Z,0
2016-02-20T00:10:34.067Z,0
2016-02-20T00:11:34.055Z,0
2016-02-20T00:12:34.010Z,0
2016-02-20T00:13:33.997Z,0
2016-02-20T00:14:33.953Z,0
2016-02-20T00:15:33.924Z,0
2016-02-20T00:16:33.896Z,0
2016-02-20T00:17:33.868Z,0
2016-02-20T00:18:33.824Z,0
2016-02-20T00:19:33.669Z,0
2016-02-20T00:20:33.782Z,0
2016-02-20T00:21:33.738Z,0
2016-02-20T00:22:33.725Z,0
2016-02-20T00:23:33.680Z,0
2016-02-20T00:24:33.683Z,0
2016-02-20T00:25:33.639Z,0
2016-02-20T00:26:33.673Z,0
2016-02-20T00:27:33.581Z,0
2016-02-20T00:28:33.538Z,0
2016-02-20T00:29:33.540Z,0
2016-02-20T00:30:33.486Z,0
2016-02-20T00:31:33.473Z,0
2016-02-20T00:32:33.570Z,0
2016-02-20T00:33:33.415Z,0
2016-02-20T00:34:33.387Z,0
2016-02-20T00:35:33.343Z,0
2016-02-20T00:36:33.314Z,0
2016-02-20T00:37:33.300Z,0
2016-02-20T00:38:33.272Z,0
2016-02-20T00:39:33.228Z,0
2016-02-20T00:40:33.200Z,0
2016-02-20T00:41:33.186Z,0
2016-02-20T00:42:33.143Z,0
2016-02-20T00:43:33.114Z,0
2016-02-20T00:44:33.086Z,0
2016-02-20T00:45:33.057Z,0
2016-02-20T00:46:33.044Z,0
2016-02-20T00:47:32.999Z,0
2016-02-20T00:48:32.988Z,0
2016-02-20T00:49:32.958Z,0
2016-02-20T00:50:32.914Z,0
2016-02-20T00:51:32.885Z,0
2016-02-20T00:52:32.873Z,0
2016-02-20T00:53:32.843Z,0
2016-02-20T00:54:32.800Z,0
2016-02-20T00:55:32.788Z,0
2016-02-20T00:56:32.759Z,0
2016-02-20T00:57:32.715Z,0
2016-02-20T00:58:32.686Z,0
2016-02-20T00:59:32.673Z,0
2016-02-20T01:00:32.644Z,0
2016-02-20T01:01:32.600Z,0
2016-02-20T01:02:32.572Z,0
2016-02-20T01:03:32.574Z,0
2016-02-20T01:04:32.515Z,0
2016-02-20T01:05:32.486Z,0
2016-02-20T01:06:32.457Z,0
2016-02-20T01:07:32.445Z,0
2016-02-20T01:08:32.400Z,0
2016-02-20T01:09:32.386Z,0
2016-02-20T01:10:32.344Z,0
2016-02-20T01:11:32.330Z,0
2016-02-20T01:12:32.302Z,0
2016-02-20T01:13:32.273Z,0
2016-02-20T01:14:32.245Z,0
2016-02-20T01:15:32.216Z,0
2016-02-20T01:16:32.171Z,0
2016-02-20T01:17:32.158Z,0
2016-02-20T01:18:32.131Z,0
2016-02-20T01:19:32.102Z,0
2016-02-20T01:20:32.057Z,0
2016-02-20T01:21:32.049Z,0
2016-02-20T01:22:32.021Z,0
2016-02-20T01:23:31.993Z,0
2016-02-20T01:24:31.965Z,0
2016-02-20T01:25:31.935Z,0
2016-02-20T01:26:31.890Z,0
2016-02-20T01:27:31.878Z,0
2016-02-20T01:28:31.850Z,0
2016-02-20T01:29:31.806Z,0
2016-02-20T01:30:31.776Z,0
2016-02-20T01:31:31.748Z,0
2016-02-20T01:32:31.736Z,0
2016-02-20T01:33:31.691Z,0
2016-02-20T01:34:31.678Z,0
2016-02-20T01:35:31.649Z,0
2016-02-20T01:36:31.621Z,0
2016-02-20T01:37:31.592Z,0
2016-02-20T01:38:31.564Z,0
2016-02-20T01:39:31.536Z,0
2016-02-20T01:40:31.508Z,0
2016-02-20T01:41:31.478Z,0
2016-02-20T01:42:31.450Z,0
2016-02-20T01:43:31.421Z,0
2016-02-20T01:44:31.393Z,0
2016-02-20T01:45:31.363Z,0
2016-02-20T01:46:31.351Z,0
2016-02-20T01:47:31.307Z,0
2016-02-20T01:48:31.279Z,0
2016-02-20T01:49:31.249Z,0
2016-02-20T01:50:31.221Z,0
2016-02-20T01:51:31.193Z,0
2016-02-20T01:52:31.164Z,0
2016-02-20T01:53:31.151Z,0
2016-02-20T01:54:31.123Z,0
2016-02-20T01:55:31.094Z,0
2016-02-20T01:56:31.065Z,0
2016-02-20T01:57:31.021Z,0
2016-02-20T01:58:30.993Z,0
2016-02-20T01:59:30.995Z,0
2016-02-20T02:00:30.951Z,0
2016-02-20T02:01:30.906Z,0
2016-02-20T02:02:30.895Z,0
2016-02-20T02:03:30.850Z,0
2016-02-20T02:04:30.853Z,0
2016-02-20T02:05:30.806Z,0
2016-02-20T02:06:30.793Z,0
2016-02-20T02:07:30.764Z,0
2016-02-20T02:08:30.719Z,0
2016-02-20T02:09:30.691Z,0
2016-02-20T02:10:30.663Z,0
2016-02-20T02:11:30.634Z,0
2016-02-20T02:12:30.606Z,0
2016-02-20T02:13:30.593Z,0
2016-02-20T02:14:30.564Z,0
2016-02-20T02:15:30.520Z,0
2016-02-20T02:16:30.491Z,0
2016-02-20T02:17:30.479Z,0
2016-02-20T02:18:30.449Z,0
2016-02-20T02:19:30.405Z,0
2016-02-20T02:20:30.393Z,0
2016-02-20T02:21:30.365Z,0
2016-02-20T02:22:30.335Z,0
2016-02-20T02:23:30.307Z,0
2016-02-20T02:24:30.263Z,0
2016-02-20T02:25:30.250Z,0
2016-02-20T02:26:30.221Z,0
2016-02-20T02:27:30.193Z,0
2016-02-20T02:28:30.164Z,0
2016-02-20T02:29:30.151Z,0
2016-02-20T02:30:30.107Z,0
2016-02-20T02:31:30.078Z,0
2016-02-20T02:32:30.050Z,0
2016-02-20T02:33:30.022Z,0
2016-02-20T02:34:30.009Z,0
2016-02-20T02:35:29.980Z,0
2016-02-20T02:36:29.951Z,0
2016-02-20T02:37:29.750Z,0
2016-02-20T02:38:29.878Z,0
2016-02-20T02:39:29.850Z,0
2016-02-20T02:40:29.821Z,0
2016-02-20T02:41:29.808Z,0
2016-02-20T02:42:29.796Z,0
2016-02-20T02:43:29.752Z,0
2016-02-20T02:44:29.739Z,0
2016-02-20T02:45:29.694Z,0
2016-02-20T02:46:29.666Z,0
2016-02-20T02:47:29.637Z,0
2016-02-20T02:48:29.608Z,0
2016-02-20T02:49:29.596Z,0
2016-02-20T02:50:29.567Z,0
2016-02-20T02:51:29.523Z,0
2016-02-20T02:52:29.494Z,0
2016-02-20T02:53:29.465Z,0
2016-02-20T02:54:29.454Z,0
2016-02-20T02:55:29.409Z,0
2016-02-20T02:56:29.396Z,0
2016-02-20T02:57:29.352Z,0
2016-02-20T02:58:29.339Z,0
2016-02-20T02:59:29.326Z,0
2016-02-20T03:00:29.282Z,0
2016-02-20T03:01:29.254Z,0
2016-02-20T03:02:29.225Z,0
2016-02-20T03:03:29.195Z,0
2016-02-20T03:04:29.167Z,0
2016-02-20T03:05:29.139Z,0
2016-02-20T03:06:29.125Z,0
2016-02-20T03:07:29.098Z,0
2016-02-20T03:08:29.053Z,0
2016-02-20T03:09:29.025Z,0
2016-02-20T03:10:28.996Z,0
2016-02-20T03:11:28.967Z,0
2016-02-20T03:12:28.939Z,0
2016-02-20T03:13:28.925Z,0
2016-02-20T03:14:28.898Z,0
2016-02-20T03:15:28.868Z,0
2016-02-20T03:16:28.841Z,0
2016-02-20T03:17:28.811Z,0
2016-02-20T03:18:28.783Z,0
2016-02-20T03:19:28.770Z,0
2016-02-20T03:20:28.741Z,0
2016-02-20T03:21:28.713Z,0
2016-02-20T03:22:28.684Z,0
2016-02-20T03:23:28.656Z,0
2016-02-20T03:24:28.628Z,0
2016-02-20T03:25:28.583Z,0
2016-02-20T03:26:28.555Z,0
2016-02-20T03:27:28.543Z,0
2016-02-20T03:28:28.513Z,0
2016-02-20T03:29:28.500Z,0
2016-02-20T03:30:28.457Z,0
2016-02-20T03:31:28.427Z,0
2016-02-20T03:32:28.398Z,0
2016-02-20T03:33:28.370Z,0
2016-02-20T03:34:28.357Z,0
2016-02-20T03:35:28.314Z,0
2016-02-20T03:36:28.285Z,0
2016-02-20T03:37:28.256Z,0
2016-02-20T03:38:28.275Z,0
2016-02-20T03:39:28.245Z,0
2016-02-20T03:40:28.187Z,0
2016-02-20T03:41:28.142Z,0
2016-02-20T03:42:28.114Z,0
2016-02-20T03:43:28.100Z,0
2016-02-20T03:44:28.056Z,0
2016-02-20T03:45:28.044Z,0
2016-02-20T03:46:28.014Z,0
2016-02-20T03:47:27.971Z,0
2016-02-20T03:48:27.974Z,0
2016-02-20T03:49:27.914Z,0
2016-02-20T03:50:27.916Z,0
2016-02-20T03:51:27.887Z,0
2016-02-20T03:52:27.860Z,0
2016-02-20T03:53:27.815Z,0
2016-02-20T03:54:27.786Z,0
2016-02-20T03:55:27.758Z,0
2016-02-20T03:56:27.729Z,0
2016-02-20T03:57:27.701Z,0
2016-02-20T03:58:27.671Z,0
2016-02-20T03:59:27.643Z,0
2016-02-20T04:00:27.615Z,0
2016-02-20T04:01:27.587Z,0
2016-02-20T04:02:27.558Z,0
2016-02-20T04:03:27.529Z,0
2016-02-20T04:04:27.517Z,0
2016-02-20T04:05:27.472Z,0
2016-02-20T04:06:27.459Z,0
2016-02-20T04:07:27.415Z,0
2016-02-20T04:08:27.403Z,0
2016-02-20T04:09:27.374Z,0
2016-02-20T04:10:27.329Z,0
2016-02-20T04:11:27.317Z,0
2016-02-20T04:12:27.288Z,0
2016-02-20T04:13:27.244Z,0
2016-02-20T04:14:27.231Z,0
2016-02-20T04:15:27.186Z,0
2016-02-20T04:16:27.174Z,0
2016-02-20T04:17:27.145Z,0
2016-02-20T04:18:27.117Z,0
2016-02-20T04:19:27.088Z,0
2016-02-20T04:20:27.060Z,0
2016-02-20T04:21:27.031Z,0
2016-02-20T04:22:27.018Z,0
2016-02-20T04:23:26.974Z,0
2016-02-20T04:24:26.946Z,0
2016-02-20T04:25:26.916Z,0
2016-02-20T04:26:26.169Z,0
2016-02-20T04:27:26.859Z,0
2016-02-20T04:28:26.847Z,0
2016-02-20T04:29:26.818Z,0
2016-02-20T04:30:26.774Z,0
2016-02-20T04:31:26.745Z,0
2016-02-20T04:32:26.717Z,0
2016-02-20T04:33:26.704Z,0
2016-02-20T04:34:26.676Z,0
2016-02-20T04:35:26.646Z,0
2016-02-20T04:36:26.603Z,0
2016-02-20T04:37:26.589Z,0
2016-02-20T04:38:26.546Z,0
2016-02-20T04:39:26.517Z,0
2016-02-20T04:40:26.504Z,0
2016-02-20T04:41:26.476Z,0
2016-02-20T04:42:26.447Z,0
2016-02-20T04:43:26.418Z,0
2016-02-20T04:44:26.390Z,0
2016-02-20T04:45:26.378Z,0
2016-02-20T04:46:26.333Z,0
2016-02-20T04:47:26.303Z,0
2016-02-20T04:48:26.276Z,0
2016-02-20T04:49:26.247Z,0
2016-02-20T04:50:26.219Z,0
2016-02-20T04:51:26.190Z,0
2016-02-20T04:52:26.161Z,0
2016-02-20T04:53:26.149Z,0
2016-02-20T04:54:26.119Z,0
2016-02-20T04:55:26.075Z,0
2016-02-20T04:56:26.047Z,0
2016-02-20T04:57:26.035Z,0
2016-02-20T04:58:26.005Z,0
2016-02-20T04:59:25.977Z,0
2016-02-20T05:00:25.949Z,0
2016-02-20T05:01:25.936Z,0
2016-02-20T05:02:25.907Z,0
2016-02-20T05:03:25.894Z,0
2016-02-20T05:04:25.835Z,0
2016-02-20T05:05:25.806Z,0
2016-02-20T05:06:25.793Z,0
2016-02-20T05:07:25.764Z,0
2016-02-20T05:08:25.720Z,0
2016-02-20T05:09:25.706Z,0
2016-02-20T05:10:25.694Z,0
2016-02-20T05:11:25.651Z,0
2016-02-20T05:12:25.606Z,0
2016-02-20T05:13:25.592Z,0
2016-02-20T05:14:25.549Z,0
2016-02-20T05:15:25.536Z,0
2016-02-20T05:16:25.507Z,0
2016-02-20T05:17:25.463Z,0
2016-02-20T05:18:25.450Z,0
2016-02-20T05:19:25.406Z,0
2016-02-20T05:20:25.392Z,0
2016-02-20T05:21:25.365Z,0
2016-02-20T05:22:25.336Z,0
2016-02-20T05:23:25.307Z,0
2016-02-20T05:24:25.279Z,0
2016-02-20T05:25:25.250Z,0
2016-02-20T05:26:25.222Z,0
2016-02-20T05:27:25.193Z,0
2016-02-20T05:28:25.164Z,0
2016-02-20T05:29:25.136Z,0
2016-02-20T05:30:25.107Z,0
2016-02-20T05:31:25.079Z,0
2016-02-20T05:32:25.050Z,0
2016-02-20T05:33:25.021Z,0
2016-02-20T05:34:24.993Z,0
2016-02-20T05:35:24.980Z,0
2016-02-20T05:36:24.935Z,0
2016-02-20T05:37:24.923Z,0
2016-02-20T05:38:24.910Z,0
2016-02-20T05:39:24.866Z,0
2016-02-20T05:40:24.837Z,0
2016-02-20T05:41:24.809Z,0
2016-02-20T05:42:24.781Z,0
2016-02-20T05:43:24.751Z,0
2016-02-20T05:44:24.723Z,0
2016-02-20T05:45:24.710Z,0
2016-02-20T05:46:24.666Z,0
2016-02-20T05:47:24.637Z,0
2016-02-20T05:48:24.608Z,0
2016-02-20T05:49:24.425Z,0
2016-02-20T05:50:24.552Z,0
2016-02-20T05:51:24.523Z,0
2016-02-20T05:52:24.511Z,0
2016-02-20T05:53:24.481Z,0
2016-02-20T05:54:24.453Z,0
2016-02-20T05:55:24.409Z,0
2016-02-20T05:56:24.397Z,0
2016-02-20T05:57:24.367Z,0
2016-02-20T05:58:24.338Z,0
2016-02-20T05:59:24.310Z,0
2016-02-20T06:00:24.282Z,0
2016-02-20T06:01:24.252Z,0
2016-02-20T06:02:24.225Z,0
2016-02-20T06:03:24.196Z,0
2016-02-20T06:04:24.168Z,0
2016-02-20T06:05:24.138Z,0
2016-02-20T06:06:24.110Z,0
2016-02-20T06:07:23.926Z,4
2016-02-20T06:08:24.053Z,4
2016-02-20T06:09:24.024Z,0
2016-02-20T06:10:24.012Z,4
2016-02-20T06:11:23.967Z,4
2016-02-20T06:12:23.940Z,4
2016-02-20T06:13:23.910Z,4
2016-02-20T06:14:23.898Z,4
2016-02-20T06:15:23.869Z,12
2016-02-20T06:16:23.840Z,12
2016-02-20T06:17:23.796Z,8
2016-02-20T06:18:23.767Z,12
2016-02-20T06:19:23.755Z,12
2016-02-20T06:20:23.726Z,20
2016-02-20T06:21:23.697Z,24
2016-02-20T06:22:23.669Z,24
2016-02-20T06:23:23.641Z,28
2016-02-20T06:24:23.612Z,32
2016-02-20T06:25:23.583Z,36
2016-02-20T06:26:23.555Z,36
2016-02-20T06:27:23.527Z,44
2016-02-20T06:28:23.513Z,52
2016-02-20T06:29:23.485Z,44
2016-02-20T06:30:23.456Z,44
2016-02-20T06:31:23.413Z,56
2016-02-20T06:32:23.399Z,68
2016-02-20T06:33:23.355Z,84
2016-02-20T06:34:23.326Z,92
2016-02-20T06:35:23.298Z,100
2016-02-20T06:36:23.284Z,100
2016-02-20T06:37:23.257Z,112
2016-02-20T06:38:23.227Z,120
2016-02-20T06:39:23.199Z,132
2016-02-20T06:40:23.170Z,132
2016-02-20T06:41:23.142Z,152
2016-02-20T06:42:23.113Z,180
2016-02-20T06:43:23.085Z,196
2016-02-20T06:44:23.057Z,200
2016-02-20T06:45:23.059Z,184
2016-02-20T06:46:22.998Z,220
2016-02-20T06:47:22.970Z,260
2016-02-20T06:48:22.942Z,292
2016-02-20T06:49:22.914Z,292
2016-02-20T06:50:22.884Z,320
2016-02-20T06:51:22.856Z,324
2016-02-20T06:52:22.844Z,348
2016-02-20T06:53:22.814Z,356
2016-02-20T06:54:22.771Z,376
2016-02-20T06:55:22.742Z,396
2016-02-20T06:56:22.714Z,412
2016-02-20T06:57:22.685Z,420
2016-02-20T06:58:22.672Z,560
2016-02-20T06:59:22.628Z,568
2016-02-20T07:00:22.615Z,596
2016-02-20T07:01:22.586Z,648
2016-02-20T07:02:22.558Z,668
2016-02-20T07:03:22.529Z,708
2016-02-20T07:04:22.501Z,764
2016-02-20T07:05:22.472Z,772
2016-02-20T07:06:22.443Z,744
2016-02-20T07:07:22.415Z,824
2016-02-20T07:08:22.401Z,736
2016-02-20T07:09:22.374Z,692
2016-02-20T07:10:22.345Z,716
2016-02-20T07:11:22.300Z,672
2016-02-20T07:12:22.273Z,580
2016-02-20T07:13:22.259Z,584
2016-02-20T07:14:22.231Z,720
2016-02-20T07:15:22.202Z,880
2016-02-20T07:16:22.173Z,952
2016-02-20T07:17:22.145Z,968
2016-02-20T07:18:22.116Z,800
2016-02-20T07:19:22.088Z,800
2016-02-20T07:20:22.059Z,820
2016-02-20T07:21:22.030Z,1228
2016-02-20T07:22:22.017Z,1680
2016-02-20T07:23:21.989Z,1616
2016-02-20T07:24:21.961Z,1436
2016-02-20T07:25:21.933Z,1396
2016-02-20T07:26:21.888Z,1548
2016-02-20T07:27:21.859Z,1592
2016-02-20T07:28:21.846Z,1616
2016-02-20T07:29:21.803Z,1880
2016-02-20T07:30:21.789Z,2216
2016-02-20T07:31:21.760Z,2292
2016-02-20T07:32:21.732Z,2148
2016-02-20T07:33:21.704Z,1844
2016-02-20T07:34:21.675Z,1912
2016-02-20T07:35:21.646Z,2744
2016-02-20T07:36:21.619Z,2564
2016-02-20T07:37:21.590Z,2472
2016-02-20T07:38:21.576Z,1948
2016-02-20T07:39:21.532Z,2012
2016-02-20T07:40:21.519Z,1804
2016-02-20T07:41:21.490Z,1808
2016-02-20T07:42:21.462Z,2024
2016-02-20T07:43:21.434Z,1636
2016-02-20T07:44:21.405Z,1776
2016-02-20T07:45:21.236Z,2180
2016-02-20T07:46:21.364Z,2832
2016-02-20T07:47:21.335Z,3092
2016-02-20T07:48:21.290Z,2984
2016-02-20T07:49:21.262Z,3068
2016-02-20T07:50:21.250Z,3008
2016-02-20T07:51:21.220Z,2744
2016-02-20T07:52:21.192Z,2756
2016-02-20T07:53:21.163Z,2860
2016-02-20T07:54:21.151Z,2928
2016-02-20T07:55:21.106Z,2816
2016-02-20T07:56:21.078Z,3100
2016-02-20T07:57:21.050Z,2840
2016-02-20T07:58:21.021Z,3052
2016-02-20T07:59:20.992Z,2800
2016-02-20T08:00:20.994Z,3404
2016-02-20T08:01:20.950Z,3456
2016-02-20T08:02:20.907Z,3944
2016-02-20T08:03:20.877Z,3936
2016-02-20T08:04:20.866Z,4248
2016-02-20T08:05:20.836Z,4380
2016-02-20T08:06:20.824Z,4424
2016-02-20T08:07:20.780Z,4288
2016-02-20T08:08:20.751Z,4644
2016-02-20T08:09:20.721Z,5280
2016-02-20T08:10:20.694Z,4968
2016-02-20T08:11:20.665Z,5044
2016-02-20T08:12:20.652Z,4776
2016-02-20T08:13:20.623Z,4980
2016-02-20T08:14:20.595Z,4712
2016-02-20T08:15:20.582Z,3936
2016-02-20T08:16:20.537Z,3472
2016-02-20T08:17:20.526Z,3360
2016-02-20T08:18:20.496Z,3144
2016-02-20T08:19:20.467Z,3176
2016-02-20T08:20:20.439Z,3040
2016-02-20T08:21:20.411Z,2912
2016-02-20T08:22:20.382Z,3048
2016-02-20T08:23:20.353Z,2908
2016-02-20T08:24:20.325Z,3120
2016-02-20T08:25:20.297Z,3052
2016-02-20T08:26:20.283Z,3360
2016-02-20T08:27:20.256Z,3756
2016-02-20T08:28:20.242Z,3652
2016-02-20T08:29:20.197Z,3400
2016-02-20T08:30:20.200Z,2948
2016-02-20T08:31:20.141Z,2628
2016-02-20T08:32:20.113Z,2116
2016-02-20T08:33:20.083Z,2268
2016-02-20T08:34:20.071Z,2432
2016-02-20T08:35:20.042Z,2424
2016-02-20T08:36:20.013Z,2680
2016-02-20T08:37:19.986Z,2572
2016-02-20T08:38:19.955Z,2480
2016-02-20T08:39:19.759Z,2784
2016-02-20T08:40:19.876Z,2940
2016-02-20T08:41:19.836Z,2800
2016-02-20T08:42:19.796Z,2888
2016-02-20T08:43:19.757Z,3260
2016-02-20T08:44:19.740Z,3272
2016-02-20T08:45:19.754Z,3740
2016-02-20T08:46:19.674Z,3848
2016-02-20T08:47:19.641Z,3828
2016-02-20T08:48:19.609Z,4028
2016-02-20T08:49:19.580Z,3588
2016-02-20T08:50:19.549Z,3472
2016-02-20T08:51:19.535Z,4300
2016-02-20T08:52:19.536Z,4332
2016-02-20T08:53:19.473Z,4168
2016-02-20T08:54:19.460Z,4116
2016-02-20T08:55:19.415Z,4136
2016-02-20T08:56:19.385Z,3820
2016-02-20T08:57:19.357Z,3584
2016-02-20T08:58:19.344Z,3368
2016-02-20T08:59:19.314Z,3244
2016-02-20T09:00:19.286Z,4240
2016-02-20T09:01:19.257Z,4260
2016-02-20T09:02:19.243Z,3452
2016-02-20T09:03:19.215Z,2896
2016-02-20T09:04:19.186Z,2988
2016-02-20T09:05:19.157Z,4136
2016-02-20T09:06:19.128Z,4616
2016-02-20T09:07:18.944Z,5028
2016-02-20T09:08:19.072Z,5456
2016-02-20T09:09:19.028Z,4924
2016-02-20T09:10:19.014Z,4212
2016-02-20T09:11:19.002Z,3892
2016-02-20T09:12:18.973Z,4508
2016-02-20T09:13:18.944Z,4668
2016-02-20T09:14:18.915Z,5656
2016-02-20T09:15:18.888Z,5592
2016-02-20T09:16:18.858Z,5476
2016-02-20T09:17:18.846Z,5012
2016-02-20T09:18:18.816Z,4800
2016-02-20T09:19:18.788Z,4772
2016-02-20T09:20:18.744Z,5000
2016-02-20T09:21:18.731Z,4648
2016-02-20T09:22:18.702Z,4968
2016-02-20T09:23:18.674Z,4972
2016-02-20T09:24:18.645Z,6136
2016-02-20T09:25:18.618Z,5840
2016-02-20T09:26:18.620Z,5280
2016-02-20T09:27:18.575Z,6204
2016-02-20T09:28:18.548Z,6308
2016-02-20T09:29:18.518Z,6012
2016-02-20T09:30:18.506Z,5684
2016-02-20T09:31:18.477Z,5684
2016-02-20T09:32:18.464Z,4620
2016-02-20T09:33:18.420Z,4112
2016-02-20T09:34:18.391Z,5232
2016-02-20T09:35:18.362Z,5540
2016-02-20T09:36:18.334Z,6692
2016-02-20T09:37:18.322Z,6520
2016-02-20T09:38:18.292Z,5836
2016-02-20T09:39:18.295Z,6444
2016-02-20T09:40:18.251Z,7148
2016-02-20T09:41:18.207Z,6764
2016-02-20T09:42:18.194Z,6464
2016-02-20T09:43:18.166Z,6320
2016-02-20T09:44:18.136Z,6472
2016-02-20T09:45:18.108Z,6096
2016-02-20T09:46:18.096Z,6968
2016-02-20T09:47:18.066Z,6748
2016-02-20T09:48:18.038Z,7212
2016-02-20T09:49:18.010Z,6692
2016-02-20T09:50:17.981Z,6720
2016-02-20T09:51:17.952Z,7228
2016-02-20T09:52:17.924Z,6768
2016-02-20T09:53:17.896Z,7160
2016-02-20T09:54:17.882Z,8000
2016-02-20T09:55:17.870Z,6664
2016-02-20T09:56:17.685Z,6248
2016-02-20T09:57:17.812Z,6616
2016-02-20T09:58:17.784Z,6276
2016-02-20T09:59:17.756Z,6620
2016-02-20T10:00:17.726Z,6136
2016-02-20T10:01:17.715Z,6868
2016-02-20T10:02:17.685Z,6628
2016-02-20T10:03:17.657Z,6528
2016-02-20T10:04:17.629Z,6524
2016-02-20T10:05:17.600Z,6084
2016-02-20T10:06:17.571Z,6128
2016-02-20T10:07:17.558Z,6208
2016-02-20T10:08:17.545Z,5944
2016-02-20T10:09:17.500Z,6048
2016-02-20T10:10:17.473Z,8124
2016-02-20T10:11:17.475Z,8472
2016-02-20T10:12:17.416Z,7804
2016-02-20T10:13:17.403Z,7216
2016-02-20T10:14:17.374Z,6944
2016-02-20T10:15:17.345Z,6332
2016-02-20T10:16:17.332Z,6680
2016-02-20T10:17:17.319Z,7380
2016-02-20T10:18:17.291Z,6688
2016-02-20T10:19:17.247Z,5736
2016-02-20T10:20:17.234Z,5564
2016-02-20T10:21:17.190Z,5812
2016-02-20T10:22:17.176Z,5232
2016-02-20T10:23:17.164Z,5012
2016-02-20T10:24:16.963Z,4992
2016-02-20T10:25:17.106Z,5816
2016-02-20T10:26:17.078Z,5704
2016-02-20T10:27:17.034Z,5492
2016-02-20T10:28:17.037Z,5488
2016-02-20T10:29:16.993Z,4600
2016-02-20T10:30:16.964Z,4708
2016-02-20T10:31:16.951Z,4388
2016-02-20T10:32:16.923Z,5248
2016-02-20T10:33:16.893Z,6400
2016-02-20T10:34:16.865Z,6184
2016-02-20T10:35:16.836Z,5268
2016-02-20T10:36:16.823Z,6352
2016-02-20T10:37:16.811Z,6956
2016-02-20T10:38:16.782Z,7344
2016-02-20T10:39:16.738Z,6336
2016-02-20T10:40:16.725Z,5588
2016-02-20T10:41:16.697Z,5540
2016-02-20T10:42:16.668Z,5460
2016-02-20T10:43:16.639Z,5840
2016-02-20T10:44:16.611Z,5144
2016-02-20T10:45:16.598Z,4828
2016-02-20T10:46:16.569Z,4584
2016-02-20T10:47:16.541Z,4964
2016-02-20T10:48:16.513Z,5268
2016-02-20T10:49:16.483Z,5588
2016-02-20T10:50:16.471Z,5664
2016-02-20T10:51:16.442Z,4644
2016-02-20T10:52:16.413Z,3932
2016-02-20T10:53:16.401Z,4076
2016-02-20T10:54:16.371Z,4620
2016-02-20T10:55:16.359Z,6308
2016-02-20T10:56:16.315Z,6592
2016-02-20T10:57:16.287Z,7016
2016-02-20T10:58:16.274Z,6716
2016-02-20T10:59:16.245Z,7108
2016-02-20T11:00:16.215Z,7636
2016-02-20T11:01:16.203Z,8656
2016-02-20T11:02:16.159Z,9344
2016-02-20T11:03:16.146Z,8348
2016-02-20T11:04:16.118Z,7916
2016-02-20T11:05:16.137Z,8332
2016-02-20T11:06:16.061Z,7492
2016-02-20T11:07:16.048Z,7816
2016-02-20T11:08:16.019Z,7784
2016-02-20T11:09:15.990Z,8840
2016-02-20T11:10:15.978Z,9356
2016-02-20T11:11:15.949Z,8712
2016-02-20T11:12:15.921Z,8560
2016-02-20T11:13:15.892Z,8880
2016-02-20T11:14:15.864Z,8632
2016-02-20T11:15:15.836Z,8144
2016-02-20T11:16:15.822Z,8520
2016-02-20T11:17:15.637Z,8408
2016-02-20T11:18:15.765Z,7932
2016-02-20T11:19:15.736Z,9168
2016-02-20T11:20:15.739Z,8832
2016-02-20T11:21:15.695Z,7940
2016-02-20T11:22:15.682Z,7308
2016-02-20T11:23:15.669Z,6848
2016-02-20T11:24:15.719Z,7240
2016-02-20T11:25:15.596Z,7024
2016-02-20T11:26:15.568Z,6488
2016-02-20T11:27:15.539Z,6836
2016-02-20T11:28:15.385Z,6724
2016-02-20T11:29:15.498Z,6620
2016-02-20T11:30:15.485Z,7432
2016-02-20T11:31:15.441Z,6160
2016-02-20T11:32:15.443Z,6100
2016-02-20T11:33:15.399Z,6592
2016-02-20T11:34:15.371Z,7712
2016-02-20T11:35:15.373Z,8340
2016-02-20T11:36:15.312Z,7608
2016-02-20T11:37:15.300Z,6792
2016-02-20T11:38:15.303Z,8768
2016-02-20T11:39:15.243Z,8692
2016-02-20T11:40:15.106Z,7384
2016-02-20T11:41:15.202Z,8312
2016-02-20T11:42:15.189Z,8228
2016-02-20T11:43:15.145Z,6844
2016-02-20T11:44:15.117Z,6368
2016-02-20T11:45:15.119Z,6576
2016-02-20T11:46:15.074Z,6808
2016-02-20T11:47:15.061Z,5404
2016-02-20T11:48:15.017Z,5492
2016-02-20T11:49:15.020Z,5444
2016-02-20T11:50:14.992Z,5612
2016-02-20T11:51:14.947Z,5288
2016-02-20T11:52:14.950Z,4888
2016-02-20T11:53:14.922Z,4376
2016-02-20T11:54:14.893Z,3916
2016-02-20T11:55:14.864Z,3804
2016-02-20T11:56:14.851Z,3544
2016-02-20T11:57:14.807Z,4708
2016-02-20T11:58:14.826Z,5076
2016-02-20T11:59:14.749Z,6408
2016-02-20T12:00:14.737Z,6192
2016-02-20T12:01:14.709Z,6544
2016-02-20T12:02:14.680Z,7060
2016-02-20T12:03:14.667Z,7792
2016-02-20T12:04:14.623Z,8868
2016-02-20T12:05:14.626Z,6636
2016-02-20T12:06:14.582Z,5072
2016-02-20T12:07:14.585Z,4696
2016-02-20T12:08:14.540Z,4652
2016-02-20T12:09:14.512Z,4172
2016-02-20T12:10:14.499Z,4328
2016-02-20T12:11:14.470Z,4560
2016-02-20T12:12:14.441Z,5052
2016-02-20T12:13:14.412Z,4364
2016-02-20T12:14:14.400Z,4552
2016-02-20T12:15:14.372Z,4560
2016-02-20T12:16:14.358Z,5204
2016-02-20T12:17:14.331Z,4664
2016-02-20T12:18:14.316Z,3320
2016-02-20T12:19:14.273Z,3720
2016-02-20T12:20:14.260Z,3616
2016-02-20T12:21:14.215Z,5268
2016-02-20T12:22:14.186Z,5456
2016-02-20T12:23:14.189Z,8064
2016-02-20T12:24:14.146Z,5392
2016-02-20T12:25:14.133Z,7452
2016-02-20T12:26:14.105Z,6932
2016-02-20T12:27:14.075Z,5708
2016-02-20T12:28:14.063Z,5408
2016-02-20T12:29:14.018Z,5988
2016-02-20T12:30:14.115Z,7708
2016-02-20T12:31:14.039Z,7304
2016-02-20T12:32:13.963Z,8112
2016-02-20T12:33:13.998Z,7108
2016-02-20T12:34:13.907Z,6852
2016-02-20T12:35:14.004Z,6776
2016-02-20T12:36:13.913Z,7224
2016-02-20T12:37:13.915Z,7428
2016-02-20T12:38:13.855Z,7488
2016-02-20T12:39:13.890Z,8488
2016-02-20T12:40:13.829Z,8536
2016-02-20T12:41:13.738Z,9180
2016-02-20T12:42:13.725Z,8936
2016-02-20T12:43:13.728Z,9820
2016-02-20T12:44:13.668Z,10456
2016-02-20T12:45:13.656Z,7616
2016-02-20T12:46:13.673Z,7140
2016-02-20T12:47:13.598Z,7476
2016-02-20T12:48:13.569Z,8236
2016-02-20T12:49:13.541Z,10068
2016-02-20T12:50:13.544Z,9488
2016-02-20T12:51:13.500Z,10024
2016-02-20T12:52:13.486Z,12436
2016-02-20T12:53:13.458Z,14116
2016-02-20T12:54:13.430Z,15876
2016-02-20T12:55:13.416Z,15708
2016-02-20T12:56:13.388Z,15328
2016-02-20T12:57:13.360Z,14924
2016-02-20T12:58:13.347Z,12748
2016-02-20T12:59:13.318Z,12484
2016-02-20T13:00:13.320Z,12300
2016-02-20T13:01:13.292Z,12192
2016-02-20T13:02:13.263Z,9780
2016-02-20T13:03:13.235Z,10676
2016-02-20T13:04:13.207Z,11032
2016-02-20T13:05:13.177Z,10424
2016-02-20T13:06:13.165Z,9112
2016-02-20T13:07:13.152Z,6936
2016-02-20T13:08:13.123Z,5272
2016-02-20T13:09:13.095Z,4788
2016-02-20T13:10:13.082Z,4764
2016-02-20T13:11:13.053Z,4720
2016-02-20T13:12:13.040Z,5916
2016-02-20T13:13:12.995Z,7052
2016-02-20T13:14:12.983Z,9452
2016-02-20T13:15:12.986Z,7116
2016-02-20T13:16:12.957Z,11672
2016-02-20T13:17:12.929Z,12020
2016-02-20T13:18:12.884Z,11036
2016-02-20T13:19:12.872Z,13604
2016-02-20T13:20:12.843Z,13072
2016-02-20T13:21:12.831Z,13276
2016-02-20T13:22:12.817Z,13284
2016-02-20T13:23:12.772Z,14868
2016-02-20T13:24:12.761Z,17084
2016-02-20T13:25:12.764Z,18368
2016-02-20T13:26:12.703Z,18912
2016-02-20T13:27:12.706Z,18432
2016-02-20T13:28:12.662Z,17092
2016-02-20T13:29:12.649Z,16712
2016-02-20T13:30:12.620Z,15272
2016-02-20T13:31:12.623Z,12688
2016-02-20T13:32:12.594Z,10948
2016-02-20T13:33:12.550Z,10024
2016-02-20T13:34:12.553Z,7468
2016-02-20T13:35:12.508Z,6280
2016-02-20T13:36:12.496Z,8832
2016-02-20T13:37:12.483Z,10812
2016-02-20T13:38:12.439Z,11664
2016-02-20T13:39:12.426Z,13292
2016-02-20T13:40:12.397Z,11400
2016-02-20T13:41:12.400Z,12988
2016-02-20T13:42:12.357Z,13576
2016-02-20T13:43:12.343Z,13156
2016-02-20T13:44:12.315Z,13444
2016-02-20T13:45:12.302Z,13336
2016-02-20T13:46:12.321Z,12520
2016-02-20T13:47:12.260Z,12340
2016-02-20T13:48:12.248Z,11004
2016-02-20T13:49:12.219Z,11892
2016-02-20T13:50:12.190Z,10984
2016-02-20T13:51:12.193Z,11464
2016-02-20T13:52:12.149Z,11804
2016-02-20T13:53:12.136Z,9272
2016-02-20T13:54:12.092Z,7668
2016-02-20T13:55:12.095Z,8656
2016-02-20T13:56:12.082Z,8100
2016-02-20T13:57:12.037Z,7324